createdAt,value
2022-09-15T00:01:31.411Z,1.55
2022-09-15T00:03:57.952Z,1.60
2022-09-15T00:06:24.281Z,1.77
2022-09-15T00:08:50.628Z,2.10
2022-09-15T00:11:22.216Z,1.70
2022-09-15T00:13:48.755Z,1.80
2022-09-15T00:16:16.246Z,1.83
2022-09-15T00:18:43.129Z,1.42
2022-09-15T00:21:11.484Z,1.65
2022-09-15T00:23:38.453Z,1.77
2022-09-15T00:26:09.316Z,1.60
2022-09-15T00:31:04.892Z,1.73
2022-09-15T00:33:31.440Z,1.50
2022-09-15T00:36:00.760Z,1.70
2022-09-15T00:38:27.048Z,1.67
2022-09-15T00:40:55.960Z,1.50
2022-09-15T00:43:41.505Z,1.55
2022-09-15T00:46:08.215Z,1.30
2022-09-15T00:48:35.723Z,1.60
2022-09-15T00:51:02.850Z,1.50
2022-09-15T00:53:30.133Z,1.83
2022-09-15T00:55:56.641Z,1.40
2022-09-15T00:58:29.030Z,1.30
2022-09-15T01:00:57.961Z,1.55
2022-09-15T01:03:25.376Z,1.90
2022-09-15T01:05:53.692Z,2.03
2022-09-15T01:08:49.278Z,1.88
2022-09-15T01:11:16.943Z,2.45
2022-09-15T01:13:43.906Z,3.50
2022-09-15T01:16:28.534Z,3.03
2022-09-15T01:18:54.848Z,2.92
2022-09-15T01:21:29.167Z,2.92
2022-09-15T01:23:55.454Z,3.17
2022-09-15T01:26:42.219Z,2.75
2022-09-15T01:29:17.784Z,3.03
2022-09-15T01:32:06.239Z,3.47
2022-09-15T01:34:36.566Z,2.90
2022-09-15T01:37:05.847Z,3.00
2022-09-15T01:39:34.907Z,2.88
2022-09-15T01:42:03.575Z,2.60
2022-09-15T01:44:35.301Z,2.90
2022-09-15T01:47:09.375Z,2.70
2022-09-15T01:49:48.519Z,2.85
2022-09-15T01:52:17.104Z,2.90
2022-09-15T01:54:48.730Z,2.90
2022-09-15T01:57:21.257Z,2.80
2022-09-15T01:59:51.396Z,2.72
2022-09-15T02:02:21.873Z,3.20
2022-09-15T02:04:56.541Z,2.90
2022-09-15T02:07:45.027Z,3.38
2022-09-15T02:10:15.180Z,3.10
2022-09-15T02:12:41.700Z,3.20
2022-09-15T02:15:12.103Z,3.20
2022-09-15T02:17:42.593Z,2.50
2022-09-15T02:20:16.002Z,2.60
2022-09-15T02:22:45.542Z,2.53
2022-09-15T02:25:14.008Z,2.47
2022-09-15T02:27:44.504Z,2.78
2022-09-15T02:30:12.395Z,3.17
2022-09-15T02:32:41.888Z,2.60
2022-09-15T02:35:09.470Z,2.55
2022-09-15T02:37:36.649Z,2.53
2022-09-15T02:40:03.774Z,2.30
2022-09-15T02:42:31.798Z,2.17
2022-09-15T02:44:59.343Z,2.33
2022-09-15T02:47:25.823Z,2.10
2022-09-15T02:49:52.766Z,2.28
2022-09-15T02:52:19.052Z,2.17
2022-09-15T02:54:45.602Z,2.20
2022-09-15T02:57:13.846Z,2.17
2022-09-15T02:59:58.973Z,2.33
2022-09-15T03:02:25.444Z,2.10
2022-09-15T03:04:51.794Z,2.13
2022-09-15T03:07:18.531Z,1.80
2022-09-15T03:09:44.919Z,1.80
2022-09-15T03:12:11.354Z,2.00
2022-09-15T03:14:38.248Z,2.00
2022-09-15T03:17:04.729Z,1.65
2022-09-15T03:19:31.011Z,2.00
2022-09-15T03:21:57.363Z,1.70
2022-09-15T03:24:23.671Z,2.10
2022-09-15T03:26:49.931Z,1.77
2022-09-15T03:29:16.215Z,1.60
2022-09-15T03:31:42.615Z,1.85
2022-09-15T03:34:08.919Z,1.67
2022-09-15T03:36:35.663Z,2.10
2022-09-15T03:39:02.131Z,1.55
2022-09-15T03:41:29.235Z,1.70
2022-09-15T03:43:56.274Z,1.50
2022-09-15T03:46:22.548Z,1.90
2022-09-15T03:48:48.848Z,1.60
2022-09-15T03:51:15.147Z,1.65
2022-09-15T03:53:42.024Z,1.58
2022-09-15T03:56:26.061Z,1.70
2022-09-15T03:58:52.842Z,1.77
2022-09-15T04:01:20.008Z,1.75
2022-09-15T04:03:50.851Z,1.70
2022-09-15T04:06:18.509Z,1.58
2022-09-15T04:08:45.024Z,1.73
2022-09-15T04:11:12.191Z,1.40
2022-09-15T04:13:39.144Z,1.40
2022-09-15T04:16:07.940Z,1.48
2022-09-15T04:18:34.685Z,1.45
2022-09-15T04:21:01.716Z,2.00
2022-09-15T04:23:28.019Z,1.70
2022-09-15T04:25:55.884Z,1.50
2022-09-15T04:28:23.137Z,1.38
2022-09-15T04:30:49.403Z,1.33
2022-09-15T04:33:15.675Z,1.52
2022-09-15T04:35:41.991Z,1.48
2022-09-15T04:38:08.293Z,1.85
2022-09-15T04:40:34.576Z,1.17
2022-09-15T04:43:01.001Z,1.38
2022-09-15T04:45:27.293Z,1.60
2022-09-15T04:47:53.656Z,1.33
2022-09-15T04:50:19.927Z,1.52
2022-09-15T04:52:46.250Z,1.58
2022-09-15T04:55:12.580Z,1.40
2022-09-15T04:57:38.847Z,1.17
2022-09-15T05:00:07.285Z,1.48
2022-09-15T05:02:33.724Z,1.80
2022-09-15T05:05:00.072Z,1.27
2022-09-15T05:07:26.388Z,1.30
2022-09-15T05:09:53.143Z,1.60
2022-09-15T05:12:19.423Z,1.70
2022-09-15T05:14:45.745Z,1.42
2022-09-15T05:17:12.047Z,1.40
2022-09-15T05:19:38.380Z,1.38
2022-09-15T05:22:04.682Z,1.40
2022-09-15T05:24:30.922Z,1.48
2022-09-15T05:26:57.182Z,1.38
2022-09-15T05:29:23.531Z,1.40
2022-09-15T05:31:49.893Z,1.70
2022-09-15T05:34:16.614Z,1.30
2022-09-15T05:36:42.931Z,1.20
2022-09-15T05:39:09.615Z,1.40
2022-09-15T05:41:35.946Z,1.20
2022-09-15T05:44:02.422Z,1.65
2022-09-15T05:46:29.118Z,1.58
2022-09-15T05:48:56.514Z,1.52
2022-09-15T05:51:22.849Z,1.33
2022-09-15T05:53:49.128Z,1.10
2022-09-15T05:56:17.014Z,1.38
2022-09-15T05:58:44.456Z,1.20
2022-09-15T06:01:13.216Z,1.33
2022-09-15T06:03:40.586Z,1.25
2022-09-15T06:06:06.906Z,1.45
2022-09-15T06:08:34.504Z,1.15
2022-09-15T06:11:02.357Z,1.42
2022-09-15T06:13:28.690Z,1.27
2022-09-15T06:16:00.407Z,1.27
2022-09-15T06:18:26.907Z,1.40
2022-09-15T06:20:53.220Z,2.22
2022-09-15T06:23:19.519Z,1.30
2022-09-15T06:25:45.804Z,1.58
2022-09-15T06:28:12.079Z,1.40
2022-09-15T06:30:41.146Z,1.45
2022-09-15T06:33:07.401Z,1.20
2022-09-15T06:35:33.657Z,1.58
2022-09-15T06:38:01.086Z,2.15
2022-09-15T06:40:27.504Z,1.25
2022-09-15T06:42:57.098Z,1.25
2022-09-15T06:45:23.428Z,1.50
2022-09-15T06:48:02.229Z,1.05
2022-09-15T06:50:37.559Z,1.33
2022-09-15T06:53:03.906Z,1.50
2022-09-15T06:55:30.144Z,1.20
2022-09-15T06:57:56.426Z,1.30
2022-09-15T07:00:23.033Z,1.15
2022-09-15T07:02:49.934Z,1.38
2022-09-15T07:05:16.438Z,1.88
2022-09-15T07:07:42.784Z,1.38
2022-09-15T07:10:09.164Z,1.73
2022-09-15T07:12:35.627Z,1.50
2022-09-15T07:15:01.894Z,1.23
2022-09-15T07:17:28.816Z,1.90
2022-09-15T07:19:55.108Z,1.75
2022-09-15T07:22:21.453Z,1.67
2022-09-15T07:24:47.803Z,1.10
2022-09-15T07:27:14.056Z,1.70
2022-09-15T07:29:40.469Z,1.77
2022-09-15T07:32:06.795Z,1.80
2022-09-15T07:34:33.113Z,1.13
2022-09-15T07:36:59.429Z,1.45
2022-09-15T07:39:25.741Z,1.52
2022-09-15T07:41:52.046Z,1.50
2022-09-15T07:44:18.335Z,3.85
2022-09-15T07:46:44.648Z,1.80
2022-09-15T07:49:10.953Z,3.60
2022-09-15T07:51:37.204Z,1.55
2022-09-15T07:54:03.555Z,2.45
2022-09-15T07:56:29.907Z,1.55
2022-09-15T07:58:56.623Z,1.50
2022-09-15T08:01:23.099Z,1.65
2022-09-15T08:03:50.681Z,1.15
2022-09-15T08:06:21.050Z,1.30
2022-09-15T08:08:47.624Z,1.77
2022-09-15T08:11:18.882Z,1.13
2022-09-15T08:13:49.554Z,1.20
2022-09-15T08:16:18.368Z,1.15
2022-09-15T08:18:45.038Z,1.00
2022-09-15T08:21:13.516Z,1.00
2022-09-15T08:23:40.391Z,1.30
2022-09-15T08:26:10.626Z,1.20
2022-09-15T08:28:39.554Z,1.20
2022-09-15T08:31:07.425Z,1.30
2022-09-15T08:33:33.789Z,1.17
2022-09-15T08:36:01.364Z,1.25
2022-09-15T08:38:27.698Z,1.73
2022-09-15T08:41:17.326Z,1.45
2022-09-15T08:43:46.548Z,1.50
2022-09-15T08:46:14.795Z,1.48
2022-09-15T08:49:04.124Z,1.17
2022-09-15T08:51:44.862Z,1.00
2022-09-15T08:54:14.339Z,1.30
2022-09-15T08:56:41.493Z,1.20
2022-09-15T08:59:11.879Z,1.23
2022-09-15T09:01:44.133Z,1.30
2022-09-15T09:04:21.168Z,0.90
2022-09-15T09:06:47.421Z,1.35
2022-09-15T09:09:16.693Z,0.80
2022-09-15T09:11:52.082Z,0.88
2022-09-15T09:14:36.928Z,1.10
2022-09-15T09:17:18.958Z,1.20
2022-09-15T09:20:14.369Z,1.38
2022-09-15T09:22:42.823Z,1.25
2022-09-15T09:25:26.526Z,1.13
2022-09-15T09:27:53.979Z,1.00
2022-09-15T09:30:21.903Z,0.70
2022-09-15T09:33:10.424Z,1.35
2022-09-15T09:35:37.572Z,1.00
2022-09-15T09:38:04.067Z,1.08
2022-09-15T09:40:31.597Z,1.20
2022-09-15T09:42:59.387Z,1.27
2022-09-15T09:45:25.952Z,1.13
2022-09-15T09:47:52.936Z,1.15
2022-09-15T09:50:39.098Z,1.17
2022-09-15T09:53:23.444Z,1.10
2022-09-15T09:55:49.814Z,1.27
2022-09-15T09:58:20.790Z,1.42
2022-09-15T10:00:47.489Z,1.30
2022-09-15T10:03:21.532Z,1.10
2022-09-15T10:06:10.480Z,1.30
2022-09-15T10:08:36.906Z,1.15
2022-09-15T10:11:04.611Z,1.10
2022-09-15T10:13:30.927Z,1.17
2022-09-15T10:16:00.240Z,1.20
2022-09-15T10:18:28.287Z,1.40
2022-09-15T10:20:54.763Z,1.10
2022-09-15T10:23:21.698Z,1.33
2022-09-15T10:25:59.611Z,1.10
2022-09-15T10:28:27.155Z,1.08
2022-09-15T10:31:10.918Z,1.20
2022-09-15T10:33:38.225Z,1.15
2022-09-15T10:36:06.096Z,1.30
2022-09-15T10:38:32.576Z,1.48
2022-09-15T10:41:06.160Z,1.00
2022-09-15T10:43:46.639Z,1.33
2022-09-15T10:46:26.128Z,1.20
2022-09-15T10:49:03.724Z,1.40
2022-09-15T10:51:34.835Z,0.98
2022-09-15T10:54:06.998Z,0.90
2022-09-15T10:56:39.472Z,1.40
2022-09-15T10:59:20.667Z,1.63
2022-09-15T11:01:52.997Z,1.60
2022-09-15T11:04:19.452Z,1.15
2022-09-15T11:06:58.469Z,1.77
2022-09-15T11:09:31.139Z,1.50
2022-09-15T11:12:07.258Z,1.20
2022-09-15T11:14:33.519Z,1.10
2022-09-15T11:17:02.631Z,1.27
2022-09-15T11:19:37.264Z,1.38
2022-09-15T11:22:08.702Z,1.10
2022-09-15T11:24:35.155Z,1.17
2022-09-15T11:27:19.375Z,1.63
2022-09-15T11:30:04.651Z,1.23
2022-09-15T11:32:38.872Z,1.23
2022-09-15T11:35:26.325Z,1.10
2022-09-15T11:37:54.103Z,1.85
2022-09-15T11:40:25.822Z,1.17
2022-09-15T11:42:56.023Z,0.80
2022-09-15T11:45:26.668Z,1.00
2022-09-15T11:50:21.968Z,1.05
2022-09-15T11:53:00.744Z,0.73
2022-09-15T11:55:30.171Z,0.90
2022-09-15T11:57:56.991Z,0.70
2022-09-15T12:00:23.595Z,0.77
2022-09-15T12:02:53.071Z,1.02
2022-09-15T12:05:23.787Z,1.10
2022-09-15T12:07:53.636Z,1.10
2022-09-15T12:10:36.083Z,0.70
2022-09-15T12:13:02.496Z,0.70
2022-09-15T12:15:29.262Z,0.75
2022-09-15T12:17:55.514Z,1.25
2022-09-15T12:20:24.258Z,1.27
2022-09-15T12:22:56.698Z,1.00
2022-09-15T12:25:30.028Z,1.50
2022-09-15T12:28:15.310Z,1.02
2022-09-15T12:30:41.753Z,0.98
2022-09-15T12:33:31.343Z,1.20
2022-09-15T12:36:18.576Z,0.93
2022-09-15T12:38:48.949Z,1.30
2022-09-15T12:43:50.737Z,1.33
2022-09-15T12:46:18.459Z,1.65
2022-09-15T12:48:47.390Z,1.15
2022-09-15T12:51:21.894Z,1.20
2022-09-15T12:53:58.165Z,1.00
2022-09-15T12:56:29.309Z,1.02
2022-09-15T12:58:56.486Z,1.40
2022-09-15T13:01:23.127Z,1.10
2022-09-15T13:03:49.566Z,0.85
2022-09-15T13:06:18.088Z,1.17
2022-09-15T13:08:46.661Z,0.82
2022-09-15T13:11:25.370Z,1.30
2022-09-15T13:13:51.640Z,1.20
2022-09-15T13:16:25.989Z,1.00
2022-09-15T13:19:05.286Z,1.17
2022-09-15T13:21:33.836Z,1.17
2022-09-15T13:24:02.543Z,0.90
2022-09-15T13:26:30.313Z,1.10
2022-09-15T13:28:57.510Z,1.10
2022-09-15T13:31:34.397Z,1.10
2022-09-15T13:40:27.369Z,0.93
2022-09-15T13:43:06.374Z,1.13
2022-09-15T13:45:43.319Z,0.88
2022-09-15T13:48:16.208Z,1.00
2022-09-15T13:50:46.403Z,1.23
2022-09-15T13:53:24.037Z,1.38
2022-09-15T13:55:51.684Z,1.10
2022-09-15T14:01:06.916Z,1.48
2022-09-15T14:03:37.229Z,2.42
2022-09-15T14:06:11.126Z,1.67
2022-09-15T14:08:38.365Z,1.10
2022-09-15T14:11:10.088Z,0.90
2022-09-15T14:13:38.010Z,0.95
2022-09-15T14:16:19.089Z,1.00
2022-09-15T14:18:46.143Z,1.25
2022-09-15T14:21:19.919Z,0.90
2022-09-15T14:23:47.506Z,1.08
2022-09-15T14:26:15.807Z,1.00
2022-09-15T14:28:48.339Z,0.85
2022-09-15T14:31:14.698Z,0.80
2022-09-15T14:33:41.185Z,1.02
2022-09-15T14:36:12.198Z,0.90
2022-09-15T14:38:39.030Z,1.08
2022-09-15T14:41:05.824Z,1.15
2022-09-15T14:43:35.405Z,1.30
2022-09-15T14:46:11.952Z,1.20
2022-09-15T14:48:38.578Z,1.38
2022-09-15T14:51:08.582Z,1.17
2022-09-15T14:53:37.803Z,1.15
2022-09-15T14:56:08.274Z,1.58
2022-09-15T14:58:43.255Z,1.25
2022-09-15T15:01:22.872Z,1.27
2022-09-15T15:03:54.231Z,1.10
2022-09-15T15:06:28.662Z,0.70
2022-09-15T15:08:59.502Z,1.20
2022-09-15T15:11:27.802Z,1.50
2022-09-15T15:13:54.676Z,1.00
2022-09-15T15:16:21.179Z,1.13
2022-09-15T15:18:48.202Z,0.98
2022-09-15T15:21:32.027Z,0.90
2022-09-15T15:23:58.475Z,1.10
2022-09-15T15:26:32.487Z,1.23
2022-09-15T15:28:58.889Z,1.00
2022-09-15T15:31:25.893Z,1.05
2022-09-15T15:33:52.306Z,1.23
2022-09-15T15:36:23.776Z,1.40
2022-09-15T15:38:54.503Z,2.10
2022-09-15T15:41:22.795Z,1.38
2022-09-15T15:43:55.690Z,0.90
2022-09-15T15:46:40.760Z,1.02
2022-09-15T15:49:10.857Z,1.02
2022-09-15T15:51:37.206Z,1.00
2022-09-15T15:54:03.588Z,1.10
2022-09-15T15:56:30.667Z,1.00
2022-09-15T15:58:59.363Z,1.50
2022-09-15T16:01:25.730Z,1.02
2022-09-15T16:03:52.052Z,1.13
2022-09-15T16:06:18.714Z,1.15
2022-09-15T16:08:45.474Z,1.10
2022-09-15T16:11:14.536Z,1.00
2022-09-15T16:13:41.705Z,0.80
2022-09-15T16:16:15.975Z,1.02
2022-09-15T16:18:42.831Z,0.80
2022-09-15T16:21:16.128Z,0.85
2022-09-15T16:23:43.721Z,0.90
2022-09-15T16:26:13.049Z,0.50
2022-09-15T16:28:39.476Z,0.90
2022-09-15T16:31:06.137Z,0.82
2022-09-15T16:33:37.329Z,1.00
2022-09-15T16:36:06.962Z,0.68
2022-09-15T16:38:34.425Z,1.10
2022-09-15T16:41:01.118Z,1.13
2022-09-15T16:43:27.418Z,0.93
2022-09-15T16:45:54.037Z,1.00
2022-09-15T16:48:21.395Z,1.25
2022-09-15T16:53:34.556Z,1.00
2022-09-15T16:56:01.372Z,0.70
2022-09-15T16:58:28.342Z,1.00
2022-09-15T17:00:54.708Z,1.17
2022-09-15T17:03:22.635Z,0.88
2022-09-15T17:05:50.091Z,0.90
2022-09-15T17:08:17.681Z,1.10
2022-09-15T17:10:44.056Z,1.20
2022-09-15T17:13:14.440Z,0.80
2022-09-15T17:15:41.720Z,1.10
2022-09-15T17:18:09.810Z,0.77
2022-09-15T17:20:39.131Z,0.95
2022-09-15T17:23:18.086Z,0.90
2022-09-15T17:25:51.151Z,1.13
2022-09-15T17:28:20.963Z,1.20
2022-09-15T17:30:48.630Z,1.00
2022-09-15T17:33:16.026Z,1.02
2022-09-15T17:35:45.639Z,0.95
2022-09-15T17:38:12.058Z,0.90
2022-09-15T17:40:38.498Z,1.00
2022-09-15T17:43:05.135Z,1.13
2022-09-15T17:45:32.998Z,0.85
2022-09-15T17:47:59.670Z,1.20
2022-09-15T17:50:28.493Z,1.05
2022-09-15T17:52:55.279Z,0.77
2022-09-15T17:55:29.660Z,1.00
2022-09-15T17:57:57.904Z,0.88
2022-09-15T18:00:25.275Z,0.93
2022-09-15T18:02:52.805Z,0.90
2022-09-15T18:05:20.356Z,0.98
2022-09-15T18:07:46.991Z,0.80
2022-09-15T18:10:14.275Z,0.73
2022-09-15T18:12:41.856Z,0.70
2022-09-15T18:15:15.187Z,0.80
2022-09-15T18:17:41.783Z,1.02
2022-09-15T18:20:08.398Z,0.90
2022-09-15T18:22:34.861Z,1.00
2022-09-15T18:25:01.176Z,0.90
2022-09-15T18:27:27.734Z,0.82
2022-09-15T18:29:54.070Z,0.98
2022-09-15T18:32:20.340Z,0.90
2022-09-15T18:34:47.512Z,0.80
2022-09-15T18:37:13.832Z,1.00
2022-09-15T18:39:40.852Z,1.30
2022-09-15T18:42:07.313Z,1.10
2022-09-15T18:44:33.638Z,0.88
2022-09-15T18:47:00.055Z,1.10
2022-09-15T18:49:26.547Z,1.35
2022-09-15T18:51:53.016Z,1.08
2022-09-15T18:54:19.302Z,0.90
2022-09-15T18:56:45.622Z,0.90
2022-09-15T18:59:14.498Z,1.05
2022-09-15T19:04:09.252Z,1.00
2022-09-15T19:06:35.553Z,1.75
2022-09-15T19:09:02.327Z,1.40
2022-09-15T19:11:29.399Z,1.05
2022-09-15T19:13:55.832Z,0.85
2022-09-15T19:16:34.587Z,0.90
2022-09-15T19:19:09.560Z,1.10
2022-09-15T19:21:36.014Z,1.20
2022-09-15T19:24:02.868Z,0.95
2022-09-15T19:26:29.456Z,1.10
2022-09-15T19:28:56.312Z,1.33
2022-09-15T19:31:24.280Z,1.10
2022-09-15T19:33:50.982Z,0.90
2022-09-15T19:36:27.834Z,1.25
2022-09-15T19:38:54.937Z,0.98
2022-09-15T19:41:21.409Z,0.80
2022-09-15T19:43:47.780Z,1.00
2022-09-15T19:46:15.536Z,0.80
2022-09-15T19:48:44.528Z,1.25
2022-09-15T19:51:21.121Z,1.38
2022-09-15T19:53:47.499Z,0.98
2022-09-15T19:56:18.772Z,1.10
2022-09-15T19:58:45.612Z,1.17
2022-09-15T20:01:11.923Z,1.45
2022-09-15T20:03:38.952Z,1.10
2022-09-15T20:06:06.554Z,1.15
2022-09-15T20:08:33.316Z,1.20
2022-09-15T20:10:59.990Z,1.35
2022-09-15T20:13:26.243Z,1.90
2022-09-15T20:16:01.991Z,1.80
2022-09-15T20:18:28.853Z,1.27
2022-09-15T20:20:55.211Z,1.30
2022-09-15T20:23:21.646Z,1.25
2022-09-15T20:25:59.265Z,1.38
2022-09-15T20:28:26.291Z,1.20
2022-09-15T20:31:06.537Z,1.13
2022-09-15T20:33:33.799Z,1.60
2022-09-15T20:36:03.824Z,1.20
2022-09-15T20:38:31.120Z,1.30
2022-09-15T20:40:58.988Z,1.05
2022-09-15T20:43:26.327Z,1.60
2022-09-15T20:46:02.843Z,1.30
2022-09-15T20:48:30.390Z,1.17
2022-09-15T20:51:00.447Z,1.00
2022-09-15T20:53:26.715Z,1.63
2022-09-15T20:55:52.980Z,1.00
2022-09-15T20:58:19.431Z,1.33
2022-09-15T21:00:47.763Z,1.65
2022-09-15T21:03:15.129Z,1.20
2022-09-15T21:05:42.211Z,1.17
2022-09-15T21:08:11.550Z,1.10
2022-09-15T21:10:39.723Z,1.02
2022-09-15T21:13:06.839Z,1.35
2022-09-15T21:15:34.468Z,1.35
2022-09-15T21:18:01.500Z,1.08
2022-09-15T21:20:28.136Z,0.98
2022-09-15T21:22:54.904Z,1.17
2022-09-15T21:25:21.516Z,1.10
2022-09-15T21:27:48.191Z,1.40
2022-09-15T21:30:14.723Z,1.17
2022-09-15T21:32:41.029Z,1.60
2022-09-15T21:35:07.447Z,1.50
2022-09-15T21:37:33.811Z,1.20
2022-09-15T21:40:00.403Z,1.30
2022-09-15T21:42:27.015Z,1.10
2022-09-15T21:44:54.026Z,1.30
2022-09-15T21:47:20.336Z,1.40
2022-09-15T21:49:46.612Z,1.60
2022-09-15T21:52:12.898Z,1.20
2022-09-15T21:54:39.367Z,1.30
2022-09-15T21:57:05.663Z,1.23
2022-09-15T21:59:31.923Z,1.73
2022-09-15T22:01:58.276Z,1.30
2022-09-15T22:04:24.999Z,1.35
2022-09-15T22:06:52.357Z,1.20
2022-09-15T22:09:21.231Z,1.20
2022-09-15T22:11:47.990Z,1.33
2022-09-15T22:14:14.648Z,1.25
2022-09-15T22:16:41.919Z,1.20
2022-09-15T22:19:09.766Z,1.40
2022-09-15T22:21:37.013Z,1.13
2022-09-15T22:24:04.651Z,1.30
2022-09-15T22:26:32.104Z,1.20
2022-09-15T22:28:59.172Z,0.95
2022-09-15T22:31:26.380Z,1.83
2022-09-15T22:33:52.970Z,1.00
2022-09-15T22:36:22.998Z,1.27
2022-09-15T22:38:51.953Z,1.20
2022-09-15T22:41:19.311Z,1.50
2022-09-15T22:43:47.875Z,1.15
2022-09-15T22:46:14.545Z,1.15
2022-09-15T22:48:43.475Z,1.52
2022-09-15T22:51:10.550Z,1.13
2022-09-15T22:53:36.824Z,1.30
2022-09-15T22:56:19.697Z,1.50
2022-09-15T22:58:46.829Z,1.20
2022-09-15T23:01:14.628Z,1.50
2022-09-15T23:03:41.312Z,1.27
2022-09-15T23:06:08.044Z,1.50
2022-09-15T23:08:35.084Z,1.27
2022-09-15T23:11:21.845Z,1.08
2022-09-15T23:13:48.370Z,1.30
2022-09-15T23:16:14.800Z,1.20
2022-09-15T23:18:41.488Z,1.10
2022-09-15T23:21:08.765Z,1.38
2022-09-15T23:23:36.231Z,1.00
2022-09-15T23:26:03.574Z,1.48
2022-09-15T23:28:30.459Z,1.92
2022-09-15T23:30:57.757Z,1.42
2022-09-15T23:33:25.041Z,1.48
2022-09-15T23:35:51.769Z,1.30
2022-09-15T23:38:18.949Z,1.23
2022-09-15T23:40:46.438Z,1.30
2022-09-15T23:43:13.754Z,1.08
2022-09-15T23:45:40.280Z,1.33
2022-09-15T23:48:08.142Z,1.20
2022-09-15T23:50:35.304Z,1.40
2022-09-15T23:53:01.973Z,1.27
2022-09-15T23:55:28.483Z,2.08
2022-09-15T23:57:54.886Z,1.08
